sensor_id;sensor_type;location;lat;lon;timestamp;P1;durP1;ratioP1;P2;durP2;ratioP2
18702;SDS011;9481;48.796;9.210;2022-09-12T00:00:26;6.33;;;5.17;;
18702;SDS011;9481;48.796;9.210;2022-09-12T00:02:53;7.13;;;5.60;;
18702;SDS011;9481;48.796;9.210;2022-09-12T00:05:19;5.70;;;5.20;;
18702;SDS011;9481;48.796;9.210;2022-09-12T00:07:46;5.87;;;5.37;;
18702;SDS011;9481;48.796;9.210;2022-09-12T00:10:13;5.80;;;5.13;;
18702;SDS011;9481;48.796;9.210;2022-09-12T00:12:39;8.50;;;5.50;;
18702;SDS011;9481;48.796;9.210;2022-09-12T00:15:05;6.00;;;5.37;;
18702;SDS011;9481;48.796;9.210;2022-09-12T00:17:35;7.40;;;5.63;;
18702;SDS011;9481;48.796;9.210;2022-09-12T00:20:03;6.33;;;5.60;;
18702;SDS011;9481;48.796;9.210;2022-09-12T00:22:32;5.97;;;5.37;;
18702;SDS011;9481;48.796;9.210;2022-09-12T00:24:58;6.37;;;5.23;;
18702;SDS011;9481;48.796;9.210;2022-09-12T00:27:24;8.20;;;5.67;;
18702;SDS011;9481;48.796;9.210;2022-09-12T00:29:51;7.37;;;5.37;;
18702;SDS011;9481;48.796;9.210;2022-09-12T00:32:17;7.80;;;5.53;;
18702;SDS011;9481;48.796;9.210;2022-09-12T00:34:43;6.60;;;5.93;;
18702;SDS011;9481;48.796;9.210;2022-09-12T00:37:08;6.87;;;6.00;;
18702;SDS011;9481;48.796;9.210;2022-09-12T00:39:34;6.60;;;5.60;;
18702;SDS011;9481;48.796;9.210;2022-09-12T00:42:00;6.73;;;6.13;;
18702;SDS011;9481;48.796;9.210;2022-09-12T00:49:45;6.03;;;5.27;;
18702;SDS011;9481;48.796;9.210;2022-09-12T00:52:33;6.23;;;5.60;;
18702;SDS011;9481;48.796;9.210;2022-09-12T00:55:09;7.53;;;5.57;;
18702;SDS011;9481;48.796;9.210;2022-09-12T01:00:25;7.07;;;5.67;;
18702;SDS011;9481;48.796;9.210;2022-09-12T01:02:54;7.60;;;6.70;;
18702;SDS011;9481;48.796;9.210;2022-09-12T01:05:25;8.43;;;6.80;;
18702;SDS011;9481;48.796;9.210;2022-09-12T01:07:55;7.73;;;6.37;;
18702;SDS011;9481;48.796;9.210;2022-09-12T01:10:21;8.53;;;6.93;;
18702;SDS011;9481;48.796;9.210;2022-09-12T01:12:48;7.87;;;7.07;;
18702;SDS011;9481;48.796;9.210;2022-09-12T01:15:14;7.83;;;6.93;;
18702;SDS011;9481;48.796;9.210;2022-09-12T01:17:46;7.13;;;6.43;;
18702;SDS011;9481;48.796;9.210;2022-09-12T01:26:40;7.47;;;6.03;;
18702;SDS011;9481;48.796;9.210;2022-09-12T01:35:19;7.17;;;6.43;;
18702;SDS011;9481;48.796;9.210;2022-09-12T01:40:51;7.10;;;6.40;;
18702;SDS011;9481;48.796;9.210;2022-09-12T01:43:52;6.60;;;5.87;;
18702;SDS011;9481;48.796;9.210;2022-09-12T01:46:52;6.30;;;5.70;;
18702;SDS011;9481;48.796;9.210;2022-09-12T01:49:33;6.67;;;5.97;;
18702;SDS011;9481;48.796;9.210;2022-09-12T01:52:27;7.43;;;6.30;;
18702;SDS011;9481;48.796;9.210;2022-09-12T01:55:31;6.20;;;5.60;;
18702;SDS011;9481;48.796;9.210;2022-09-12T01:58:06;7.47;;;5.83;;
18702;SDS011;9481;48.796;9.210;2022-09-12T02:00:47;6.60;;;6.00;;
18702;SDS011;9481;48.796;9.210;2022-09-12T02:03:23;6.60;;;5.90;;
18702;SDS011;9481;48.796;9.210;2022-09-12T02:06:07;6.50;;;5.90;;
18702;SDS011;9481;48.796;9.210;2022-09-12T02:08:45;7.30;;;6.47;;
18702;SDS011;9481;48.796;9.210;2022-09-12T02:11:16;6.93;;;6.00;;
18702;SDS011;9481;48.796;9.210;2022-09-12T02:13:52;6.77;;;5.93;;
18702;SDS011;9481;48.796;9.210;2022-09-12T02:16:41;6.63;;;5.97;;
18702;SDS011;9481;48.796;9.210;2022-09-12T02:19:17;7.00;;;6.30;;
18702;SDS011;9481;48.796;9.210;2022-09-12T02:21:54;7.00;;;6.20;;
18702;SDS011;9481;48.796;9.210;2022-09-12T02:24:26;7.03;;;6.03;;
18702;SDS011;9481;48.796;9.210;2022-09-12T02:27:08;9.07;;;6.20;;
18702;SDS011;9481;48.796;9.210;2022-09-12T02:29:41;6.83;;;6.13;;
18702;SDS011;9481;48.796;9.210;2022-09-12T02:32:29;7.47;;;6.20;;
18702;SDS011;9481;48.796;9.210;2022-09-12T02:35:07;6.63;;;6.00;;
18702;SDS011;9481;48.796;9.210;2022-09-12T02:40:50;6.33;;;5.63;;
18702;SDS011;9481;48.796;9.210;2022-09-12T02:43:16;8.23;;;6.37;;
18702;SDS011;9481;48.796;9.210;2022-09-12T02:45:42;7.70;;;6.80;;
18702;SDS011;9481;48.796;9.210;2022-09-12T02:50:40;9.00;;;6.23;;
18702;SDS011;9481;48.796;9.210;2022-09-12T02:53:07;6.97;;;5.90;;
18702;SDS011;9481;48.796;9.210;2022-09-12T02:55:35;7.27;;;6.40;;
18702;SDS011;9481;48.796;9.210;2022-09-12T02:58:04;6.47;;;5.87;;
18702;SDS011;9481;48.796;9.210;2022-09-12T03:06:17;7.07;;;6.33;;
18702;SDS011;9481;48.796;9.210;2022-09-12T03:09:08;7.57;;;6.30;;
18702;SDS011;9481;48.796;9.210;2022-09-12T03:12:09;7.00;;;6.30;;
18702;SDS011;9481;48.796;9.210;2022-09-12T03:14:42;7.83;;;7.03;;
18702;SDS011;9481;48.796;9.210;2022-09-12T03:20:24;7.53;;;6.70;;
18702;SDS011;9481;48.796;9.210;2022-09-12T03:23:12;7.80;;;7.03;;
18702;SDS011;9481;48.796;9.210;2022-09-12T03:26:05;7.23;;;6.50;;
18702;SDS011;9481;48.796;9.210;2022-09-12T03:28:39;9.90;;;7.40;;
18702;SDS011;9481;48.796;9.210;2022-09-12T03:31:13;8.60;;;7.70;;
18702;SDS011;9481;48.796;9.210;2022-09-12T03:33:43;10.23;;;7.37;;
18702;SDS011;9481;48.796;9.210;2022-09-12T03:36:17;9.53;;;7.37;;
18702;SDS011;9481;48.796;9.210;2022-09-12T03:38:48;7.73;;;6.60;;
18702;SDS011;9481;48.796;9.210;2022-09-12T03:41:14;8.23;;;7.00;;
18702;SDS011;9481;48.796;9.210;2022-09-12T03:43:40;9.70;;;7.47;;
18702;SDS011;9481;48.796;9.210;2022-09-12T03:46:06;10.70;;;7.47;;
18702;SDS011;9481;48.796;9.210;2022-09-12T03:48:32;9.57;;;7.50;;
18702;SDS011;9481;48.796;9.210;2022-09-12T03:51:01;9.83;;;7.77;;
18702;SDS011;9481;48.796;9.210;2022-09-12T03:53:30;10.70;;;7.73;;
18702;SDS011;9481;48.796;9.210;2022-09-12T03:55:56;10.37;;;7.87;;
18702;SDS011;9481;48.796;9.210;2022-09-12T03:58:22;8.33;;;7.13;;
18702;SDS011;9481;48.796;9.210;2022-09-12T04:00:49;8.43;;;6.93;;
18702;SDS011;9481;48.796;9.210;2022-09-12T04:03:15;8.23;;;6.77;;
18702;SDS011;9481;48.796;9.210;2022-09-12T04:05:41;7.67;;;6.83;;
18702;SDS011;9481;48.796;9.210;2022-09-12T04:08:06;7.93;;;7.13;;
18702;SDS011;9481;48.796;9.210;2022-09-12T04:10:32;7.70;;;6.83;;
18702;SDS011;9481;48.796;9.210;2022-09-12T04:12:57;7.70;;;6.90;;
18702;SDS011;9481;48.796;9.210;2022-09-12T04:15:23;9.43;;;7.13;;
18702;SDS011;9481;48.796;9.210;2022-09-12T04:17:49;7.97;;;7.17;;
18702;SDS011;9481;48.796;9.210;2022-09-12T04:20:14;8.43;;;6.97;;
18702;SDS011;9481;48.796;9.210;2022-09-12T04:22:40;9.13;;;7.20;;
18702;SDS011;9481;48.796;9.210;2022-09-12T04:25:06;8.53;;;7.20;;
18702;SDS011;9481;48.796;9.210;2022-09-12T04:27:33;9.13;;;7.80;;
18702;SDS011;9481;48.796;9.210;2022-09-12T04:29:59;8.43;;;7.43;;
18702;SDS011;9481;48.796;9.210;2022-09-12T04:32:26;9.60;;;7.20;;
18702;SDS011;9481;48.796;9.210;2022-09-12T04:34:55;8.37;;;7.53;;
18702;SDS011;9481;48.796;9.210;2022-09-12T04:37:21;11.63;;;7.53;;
18702;SDS011;9481;48.796;9.210;2022-09-12T04:39:48;9.50;;;7.63;;
18702;SDS011;9481;48.796;9.210;2022-09-12T04:42:14;8.10;;;7.30;;
18702;SDS011;9481;48.796;9.210;2022-09-12T04:44:40;9.07;;;7.70;;
18702;SDS011;9481;48.796;9.210;2022-09-12T04:47:06;9.97;;;7.90;;
18702;SDS011;9481;48.796;9.210;2022-09-12T04:49:32;10.23;;;7.90;;
18702;SDS011;9481;48.796;9.210;2022-09-12T04:51:58;9.60;;;8.07;;
18702;SDS011;9481;48.796;9.210;2022-09-12T04:54:24;9.00;;;8.07;;
18702;SDS011;9481;48.796;9.210;2022-09-12T04:56:51;10.53;;;8.00;;
18702;SDS011;9481;48.796;9.210;2022-09-12T04:59:19;10.23;;;8.77;;
18702;SDS011;9481;48.796;9.210;2022-09-12T05:01:46;10.00;;;8.63;;
18702;SDS011;9481;48.796;9.210;2022-09-12T05:04:12;11.13;;;9.07;;
18702;SDS011;9481;48.796;9.210;2022-09-12T05:06:38;10.67;;;9.00;;
18702;SDS011;9481;48.796;9.210;2022-09-12T05:09:07;10.73;;;8.60;;
18702;SDS011;9481;48.796;9.210;2022-09-12T05:11:37;11.97;;;9.40;;
18702;SDS011;9481;48.796;9.210;2022-09-12T05:14:04;10.00;;;8.90;;
18702;SDS011;9481;48.796;9.210;2022-09-12T05:16:31;9.73;;;8.73;;
18702;SDS011;9481;48.796;9.210;2022-09-12T05:18:57;11.10;;;9.03;;
18702;SDS011;9481;48.796;9.210;2022-09-12T05:21:23;11.70;;;8.90;;
18702;SDS011;9481;48.796;9.210;2022-09-12T05:23:51;10.73;;;8.87;;
18702;SDS011;9481;48.796;9.210;2022-09-12T05:26:22;10.97;;;9.47;;
18702;SDS011;9481;48.796;9.210;2022-09-12T05:28:48;9.93;;;8.40;;
18702;SDS011;9481;48.796;9.210;2022-09-12T05:31:17;9.77;;;8.47;;
18702;SDS011;9481;48.796;9.210;2022-09-12T05:33:48;11.33;;;8.67;;
18702;SDS011;9481;48.796;9.210;2022-09-12T05:36:20;10.77;;;8.90;;
18702;SDS011;9481;48.796;9.210;2022-09-12T05:38:53;9.27;;;8.23;;
18702;SDS011;9481;48.796;9.210;2022-09-12T05:41:20;9.47;;;7.87;;
18702;SDS011;9481;48.796;9.210;2022-09-12T05:43:55;7.87;;;6.97;;
18702;SDS011;9481;48.796;9.210;2022-09-12T05:46:24;8.93;;;7.13;;
18702;SDS011;9481;48.796;9.210;2022-09-12T05:48:52;10.03;;;7.50;;
18702;SDS011;9481;48.796;9.210;2022-09-12T05:51:30;10.27;;;8.70;;
18702;SDS011;9481;48.796;9.210;2022-09-12T05:53:59;8.47;;;7.57;;
18702;SDS011;9481;48.796;9.210;2022-09-12T05:56:27;8.93;;;8.03;;
18702;SDS011;9481;48.796;9.210;2022-09-12T05:59:00;10.07;;;8.03;;
18702;SDS011;9481;48.796;9.210;2022-09-12T06:01:30;9.27;;;7.70;;
18702;SDS011;9481;48.796;9.210;2022-09-12T06:03:58;10.77;;;8.67;;
18702;SDS011;9481;48.796;9.210;2022-09-12T06:06:28;10.03;;;8.23;;
18702;SDS011;9481;48.796;9.210;2022-09-12T06:08:56;9.07;;;7.63;;
18702;SDS011;9481;48.796;9.210;2022-09-12T06:11:29;9.73;;;7.93;;
18702;SDS011;9481;48.796;9.210;2022-09-12T06:13:57;9.90;;;8.10;;
18702;SDS011;9481;48.796;9.210;2022-09-12T06:16:25;9.47;;;8.17;;
18702;SDS011;9481;48.796;9.210;2022-09-12T06:18:54;14.40;;;8.00;;
18702;SDS011;9481;48.796;9.210;2022-09-12T06:21:23;9.07;;;7.97;;
18702;SDS011;9481;48.796;9.210;2022-09-12T06:23:52;10.27;;;7.90;;
18702;SDS011;9481;48.796;9.210;2022-09-12T06:26:25;9.60;;;7.80;;
18702;SDS011;9481;48.796;9.210;2022-09-12T06:28:52;11.23;;;8.43;;
18702;SDS011;9481;48.796;9.210;2022-09-12T06:31:21;9.47;;;8.40;;
18702;SDS011;9481;48.796;9.210;2022-09-12T06:33:54;9.97;;;8.57;;
18702;SDS011;9481;48.796;9.210;2022-09-12T06:36:26;10.03;;;8.90;;
18702;SDS011;9481;48.796;9.210;2022-09-12T06:38:56;9.70;;;8.50;;
18702;SDS011;9481;48.796;9.210;2022-09-12T06:41:28;10.93;;;8.50;;
18702;SDS011;9481;48.796;9.210;2022-09-12T06:43:55;8.73;;;7.83;;
18702;SDS011;9481;48.796;9.210;2022-09-12T06:46:22;9.77;;;8.30;;
18702;SDS011;9481;48.796;9.210;2022-09-12T06:48:49;11.57;;;8.83;;
18702;SDS011;9481;48.796;9.210;2022-09-12T06:51:15;10.80;;;8.27;;
18702;SDS011;9481;48.796;9.210;2022-09-12T06:53:44;8.60;;;7.70;;
18702;SDS011;9481;48.796;9.210;2022-09-12T06:56:12;8.50;;;7.60;;
18702;SDS011;9481;48.796;9.210;2022-09-12T06:58:43;8.73;;;7.53;;
18702;SDS011;9481;48.796;9.210;2022-09-12T07:03:39;8.60;;;6.90;;
18702;SDS011;9481;48.796;9.210;2022-09-12T07:06:07;9.13;;;7.07;;
18702;SDS011;9481;48.796;9.210;2022-09-12T07:08:36;7.50;;;6.40;;
18702;SDS011;9481;48.796;9.210;2022-09-12T07:11:10;7.47;;;6.77;;
18702;SDS011;9481;48.796;9.210;2022-09-12T07:13:43;7.23;;;6.20;;
18702;SDS011;9481;48.796;9.210;2022-09-12T07:16:11;13.73;;;6.47;;
18702;SDS011;9481;48.796;9.210;2022-09-12T07:18:38;7.73;;;6.93;;
18702;SDS011;9481;48.796;9.210;2022-09-12T07:21:05;7.57;;;6.73;;
18702;SDS011;9481;48.796;9.210;2022-09-12T07:23:34;6.63;;;5.97;;
18702;SDS011;9481;48.796;9.210;2022-09-12T07:25:59;6.47;;;5.70;;
18702;SDS011;9481;48.796;9.210;2022-09-12T07:28:27;6.87;;;5.97;;
18702;SDS011;9481;48.796;9.210;2022-09-12T07:30:55;6.70;;;5.60;;
18702;SDS011;9481;48.796;9.210;2022-09-12T07:33:23;7.13;;;5.40;;
18702;SDS011;9481;48.796;9.210;2022-09-12T07:35:52;5.37;;;4.60;;
18702;SDS011;9481;48.796;9.210;2022-09-12T07:38:21;5.63;;;4.70;;
18702;SDS011;9481;48.796;9.210;2022-09-12T07:40:47;5.47;;;4.97;;
18702;SDS011;9481;48.796;9.210;2022-09-12T07:43:13;5.87;;;5.03;;
18702;SDS011;9481;48.796;9.210;2022-09-12T07:45:39;5.63;;;4.90;;
18702;SDS011;9481;48.796;9.210;2022-09-12T07:48:06;6.10;;;5.50;;
18702;SDS011;9481;48.796;9.210;2022-09-12T07:50:33;5.43;;;4.93;;
18702;SDS011;9481;48.796;9.210;2022-09-12T07:53:00;6.43;;;5.17;;
18702;SDS011;9481;48.796;9.210;2022-09-12T07:55:30;6.57;;;4.97;;
18702;SDS011;9481;48.796;9.210;2022-09-12T07:57:56;5.23;;;4.33;;
18702;SDS011;9481;48.796;9.210;2022-09-12T08:00:21;7.33;;;5.70;;
18702;SDS011;9481;48.796;9.210;2022-09-12T08:02:50;6.57;;;4.33;;
18702;SDS011;9481;48.796;9.210;2022-09-12T08:05:17;5.00;;;4.50;;
18702;SDS011;9481;48.796;9.210;2022-09-12T08:07:44;5.27;;;4.77;;
18702;SDS011;9481;48.796;9.210;2022-09-12T08:10:10;4.53;;;4.13;;
18702;SDS011;9481;48.796;9.210;2022-09-12T08:12:36;4.43;;;4.03;;
18702;SDS011;9481;48.796;9.210;2022-09-12T08:15:02;4.13;;;3.73;;
18702;SDS011;9481;48.796;9.210;2022-09-12T08:17:28;4.70;;;3.50;;
18702;SDS011;9481;48.796;9.210;2022-09-12T08:19:54;3.73;;;3.33;;
18702;SDS011;9481;48.796;9.210;2022-09-12T08:22:20;3.53;;;3.03;;
18702;SDS011;9481;48.796;9.210;2022-09-12T08:24:47;3.53;;;3.00;;
18702;SDS011;9481;48.796;9.210;2022-09-12T08:27:13;4.70;;;2.90;;
18702;SDS011;9481;48.796;9.210;2022-09-12T08:29:40;2.60;;;2.40;;
18702;SDS011;9481;48.796;9.210;2022-09-12T08:32:06;2.93;;;2.73;;
18702;SDS011;9481;48.796;9.210;2022-09-12T08:34:32;3.40;;;2.83;;
18702;SDS011;9481;48.796;9.210;2022-09-12T08:36:58;3.27;;;2.97;;
18702;SDS011;9481;48.796;9.210;2022-09-12T08:39:24;2.70;;;2.43;;
18702;SDS011;9481;48.796;9.210;2022-09-12T08:41:57;2.93;;;2.63;;
18702;SDS011;9481;48.796;9.210;2022-09-12T08:44:32;3.30;;;2.80;;
18702;SDS011;9481;48.796;9.210;2022-09-12T08:47:37;2.57;;;2.20;;
18702;SDS011;9481;48.796;9.210;2022-09-12T08:55:32;2.50;;;2.30;;
18702;SDS011;9481;48.796;9.210;2022-09-12T08:58:12;2.43;;;2.23;;
18702;SDS011;9481;48.796;9.210;2022-09-12T09:06:43;2.37;;;2.17;;
18702;SDS011;9481;48.796;9.210;2022-09-12T09:09:43;2.00;;;1.90;;
18702;SDS011;9481;48.796;9.210;2022-09-12T09:15:11;2.13;;;1.97;;
18702;SDS011;9481;48.796;9.210;2022-09-12T09:18:16;3.83;;;2.10;;
18702;SDS011;9481;48.796;9.210;2022-09-12T09:21:32;2.27;;;1.97;;
18702;SDS011;9481;48.796;9.210;2022-09-12T09:23:47;2.23;;;2.03;;
18702;SDS011;9481;48.796;9.210;2022-09-12T09:26:22;2.57;;;1.80;;
18702;SDS011;9481;48.796;9.210;2022-09-12T09:28:57;2.03;;;1.70;;
18702;SDS011;9481;48.796;9.210;2022-09-12T09:31:36;2.07;;;1.80;;
18702;SDS011;9481;48.796;9.210;2022-09-12T09:34:13;2.13;;;1.90;;
18702;SDS011;9481;48.796;9.210;2022-09-12T09:36:49;1.50;;;1.40;;
18702;SDS011;9481;48.796;9.210;2022-09-12T09:42:37;1.97;;;1.80;;
18702;SDS011;9481;48.796;9.210;2022-09-12T09:45:20;1.70;;;1.60;;
18702;SDS011;9481;48.796;9.210;2022-09-12T09:51:07;1.73;;;1.63;;
18702;SDS011;9481;48.796;9.210;2022-09-12T09:53:36;2.90;;;1.70;;
18702;SDS011;9481;48.796;9.210;2022-09-12T09:56:23;2.00;;;1.63;;
18702;SDS011;9481;48.796;9.210;2022-09-12T10:01:59;1.70;;;1.60;;
18702;SDS011;9481;48.796;9.210;2022-09-12T10:04:55;2.30;;;1.50;;
18702;SDS011;9481;48.796;9.210;2022-09-12T10:07:23;1.60;;;1.50;;
18702;SDS011;9481;48.796;9.210;2022-09-12T10:10:04;2.33;;;1.67;;
18702;SDS011;9481;48.796;9.210;2022-09-12T10:12:39;1.57;;;1.47;;
18702;SDS011;9481;48.796;9.210;2022-09-12T10:15:16;1.63;;;1.53;;
18702;SDS011;9481;48.796;9.210;2022-09-12T10:17:45;1.50;;;1.40;;
18702;SDS011;9481;48.796;9.210;2022-09-12T10:25:57;1.60;;;1.50;;
18702;SDS011;9481;48.796;9.210;2022-09-12T10:28:32;3.00;;;1.47;;
18702;SDS011;9481;48.796;9.210;2022-09-12T10:31:05;1.20;;;1.20;;
18702;SDS011;9481;48.796;9.210;2022-09-12T10:33:38;1.60;;;1.50;;
18702;SDS011;9481;48.796;9.210;2022-09-12T10:36:16;1.40;;;1.30;;
18702;SDS011;9481;48.796;9.210;2022-09-12T10:38:47;1.63;;;1.53;;
18702;SDS011;9481;48.796;9.210;2022-09-12T10:41:25;2.70;;;1.70;;
18702;SDS011;9481;48.796;9.210;2022-09-12T10:44:06;5.33;;;1.50;;
18702;SDS011;9481;48.796;9.210;2022-09-12T10:46:39;1.53;;;1.43;;
18702;SDS011;9481;48.796;9.210;2022-09-12T10:55:00;1.50;;;1.40;;
18702;SDS011;9481;48.796;9.210;2022-09-12T10:58:02;2.60;;;1.60;;
18702;SDS011;9481;48.796;9.210;2022-09-12T11:00:29;1.77;;;1.67;;
18702;SDS011;9481;48.796;9.210;2022-09-12T11:06:02;1.23;;;1.23;;
18702;SDS011;9481;48.796;9.210;2022-09-12T11:08:36;1.43;;;1.33;;
18702;SDS011;9481;48.796;9.210;2022-09-12T11:11:22;1.30;;;1.20;;
18702;SDS011;9481;48.796;9.210;2022-09-12T11:20:27;2.50;;;1.53;;
18702;SDS011;9481;48.796;9.210;2022-09-12T11:23:16;1.30;;;1.17;;
18702;SDS011;9481;48.796;9.210;2022-09-12T11:26:12;1.23;;;1.13;;
18702;SDS011;9481;48.796;9.210;2022-09-12T11:28:54;1.37;;;1.27;;
18702;SDS011;9481;48.796;9.210;2022-09-12T11:49:24;2.47;;;1.00;;
18702;SDS011;9481;48.796;9.210;2022-09-12T11:54:45;1.27;;;1.17;;
18702;SDS011;9481;48.796;9.210;2022-09-12T11:57:43;1.00;;;1.00;;
18702;SDS011;9481;48.796;9.210;2022-09-12T12:00:18;1.17;;;0.90;;
18702;SDS011;9481;48.796;9.210;2022-09-12T12:05:48;1.10;;;0.90;;
18702;SDS011;9481;48.796;9.210;2022-09-12T12:08:25;0.80;;;0.80;;
18702;SDS011;9481;48.796;9.210;2022-09-12T12:13:30;0.90;;;0.90;;
18702;SDS011;9481;48.796;9.210;2022-09-12T12:18:58;1.03;;;0.77;;
18702;SDS011;9481;48.796;9.210;2022-09-12T12:29:08;0.90;;;0.80;;
18702;SDS011;9481;48.796;9.210;2022-09-12T12:34:34;0.90;;;0.90;;
18702;SDS011;9481;48.796;9.210;2022-09-12T12:39:55;0.80;;;0.80;;
18702;SDS011;9481;48.796;9.210;2022-09-12T12:45:46;1.10;;;1.00;;
18702;SDS011;9481;48.796;9.210;2022-09-12T12:47:51;1.83;;;1.00;;
18702;SDS011;9481;48.796;9.210;2022-09-12T12:50:23;0.80;;;0.80;;
18702;SDS011;9481;48.796;9.210;2022-09-12T13:03:36;0.80;;;0.80;;
18702;SDS011;9481;48.796;9.210;2022-09-12T13:06:19;1.50;;;0.80;;
18702;SDS011;9481;48.796;9.210;2022-09-12T13:09:22;1.20;;;1.10;;
18702;SDS011;9481;48.796;9.210;2022-09-12T13:11:59;0.97;;;0.97;;
18702;SDS011;9481;48.796;9.210;2022-09-12T13:14:34;1.37;;;0.90;;
18702;SDS011;9481;48.796;9.210;2022-09-12T13:22:38;0.80;;;0.80;;
18702;SDS011;9481;48.796;9.210;2022-09-12T13:28:01;0.87;;;0.80;;
18702;SDS011;9481;48.796;9.210;2022-09-12T13:30:28;0.70;;;0.70;;
18702;SDS011;9481;48.796;9.210;2022-09-12T13:32:57;0.60;;;0.60;;
18702;SDS011;9481;48.796;9.210;2022-09-12T13:41:25;0.80;;;0.80;;
18702;SDS011;9481;48.796;9.210;2022-09-12T13:44:11;3.40;;;0.80;;
18702;SDS011;9481;48.796;9.210;2022-09-12T13:46:42;1.03;;;0.70;;
18702;SDS011;9481;48.796;9.210;2022-09-12T13:49:51;0.60;;;0.60;;
18702;SDS011;9481;48.796;9.210;2022-09-12T13:52:05;0.70;;;0.70;;
18702;SDS011;9481;48.796;9.210;2022-09-12T13:54:40;1.10;;;0.63;;
18702;SDS011;9481;48.796;9.210;2022-09-12T13:57:27;0.80;;;0.80;;
18702;SDS011;9481;48.796;9.210;2022-09-12T14:02:46;0.60;;;0.60;;
18702;SDS011;9481;48.796;9.210;2022-09-12T14:05:20;0.73;;;0.70;;
18702;SDS011;9481;48.796;9.210;2022-09-12T14:07:54;2.57;;;0.80;;
18702;SDS011;9481;48.796;9.210;2022-09-12T14:10:29;0.77;;;0.73;;
18702;SDS011;9481;48.796;9.210;2022-09-12T14:13:00;1.90;;;0.93;;
18702;SDS011;9481;48.796;9.210;2022-09-12T14:15:35;0.80;;;0.80;;
18702;SDS011;9481;48.796;9.210;2022-09-12T14:18:03;1.03;;;0.60;;
18702;SDS011;9481;48.796;9.210;2022-09-12T14:20:36;0.70;;;0.70;;
18702;SDS011;9481;48.796;9.210;2022-09-12T14:23:13;0.90;;;0.80;;
18702;SDS011;9481;48.796;9.210;2022-09-12T14:25:48;0.80;;;0.80;;
18702;SDS011;9481;48.796;9.210;2022-09-12T14:28:16;5.07;;;0.97;;
18702;SDS011;9481;48.796;9.210;2022-09-12T14:30:55;1.00;;;0.90;;
18702;SDS011;9481;48.796;9.210;2022-09-12T14:33:27;1.10;;;0.93;;
18702;SDS011;9481;48.796;9.210;2022-09-12T14:36:16;0.80;;;0.80;;
18702;SDS011;9481;48.796;9.210;2022-09-12T14:38:49;0.90;;;0.90;;
18702;SDS011;9481;48.796;9.210;2022-09-12T14:41:35;1.70;;;0.90;;
18702;SDS011;9481;48.796;9.210;2022-09-12T14:44:09;0.80;;;0.80;;
18702;SDS011;9481;48.796;9.210;2022-09-12T14:46:48;0.80;;;0.73;;
18702;SDS011;9481;48.796;9.210;2022-09-12T14:51:56;3.53;;;1.20;;
18702;SDS011;9481;48.796;9.210;2022-09-12T14:56:55;1.93;;;1.10;;
18702;SDS011;9481;48.796;9.210;2022-09-12T14:59:43;1.10;;;1.00;;
18702;SDS011;9481;48.796;9.210;2022-09-12T15:07:31;0.97;;;0.97;;
18702;SDS011;9481;48.796;9.210;2022-09-12T15:10:04;1.53;;;1.30;;
18702;SDS011;9481;48.796;9.210;2022-09-12T15:15:30;0.90;;;0.90;;
18702;SDS011;9481;48.796;9.210;2022-09-12T15:17:56;2.00;;;1.20;;
18702;SDS011;9481;48.796;9.210;2022-09-12T15:20:22;2.60;;;1.13;;
18702;SDS011;9481;48.796;9.210;2022-09-12T15:22:48;1.33;;;1.20;;
18702;SDS011;9481;48.796;9.210;2022-09-12T15:25:15;1.20;;;1.10;;
18702;SDS011;9481;48.796;9.210;2022-09-12T15:27:42;1.50;;;1.00;;
18702;SDS011;9481;48.796;9.210;2022-09-12T15:30:12;1.27;;;1.17;;
18702;SDS011;9481;48.796;9.210;2022-09-12T15:32:39;3.17;;;1.20;;
18702;SDS011;9481;48.796;9.210;2022-09-12T15:35:17;1.17;;;1.07;;
18702;SDS011;9481;48.796;9.210;2022-09-12T15:37:48;1.00;;;1.00;;
18702;SDS011;9481;48.796;9.210;2022-09-12T15:40:14;0.90;;;0.90;;
18702;SDS011;9481;48.796;9.210;2022-09-12T15:42:40;1.13;;;1.03;;
18702;SDS011;9481;48.796;9.210;2022-09-12T15:45:20;1.00;;;1.00;;
18702;SDS011;9481;48.796;9.210;2022-09-12T15:47:51;1.40;;;1.10;;
18702;SDS011;9481;48.796;9.210;2022-09-12T15:50:18;1.90;;;1.00;;
18702;SDS011;9481;48.796;9.210;2022-09-12T15:52:43;2.60;;;1.00;;
18702;SDS011;9481;48.796;9.210;2022-09-12T15:55:11;1.10;;;1.00;;
18702;SDS011;9481;48.796;9.210;2022-09-12T15:57:45;1.13;;;1.10;;
18702;SDS011;9481;48.796;9.210;2022-09-12T16:00:12;3.50;;;1.10;;
18702;SDS011;9481;48.796;9.210;2022-09-12T16:02:41;1.03;;;1.03;;
18702;SDS011;9481;48.796;9.210;2022-09-12T16:05:16;4.40;;;1.00;;
18702;SDS011;9481;48.796;9.210;2022-09-12T16:07:45;1.30;;;1.20;;
18702;SDS011;9481;48.796;9.210;2022-09-12T16:10:14;0.80;;;0.80;;
18702;SDS011;9481;48.796;9.210;2022-09-12T16:12:43;0.90;;;0.90;;
18702;SDS011;9481;48.796;9.210;2022-09-12T16:15:14;1.67;;;1.10;;
18702;SDS011;9481;48.796;9.210;2022-09-12T16:17:43;1.77;;;0.90;;
18702;SDS011;9481;48.796;9.210;2022-09-12T16:20:09;1.00;;;1.00;;
18702;SDS011;9481;48.796;9.210;2022-09-12T16:22:36;1.00;;;1.00;;
18702;SDS011;9481;48.796;9.210;2022-09-12T16:25:03;2.17;;;0.90;;
18702;SDS011;9481;48.796;9.210;2022-09-12T16:27:30;1.53;;;1.20;;
18702;SDS011;9481;48.796;9.210;2022-09-12T16:29:56;1.20;;;1.10;;
18702;SDS011;9481;48.796;9.210;2022-09-12T16:32:22;1.37;;;1.00;;
18702;SDS011;9481;48.796;9.210;2022-09-12T16:34:47;1.03;;;1.00;;
18702;SDS011;9481;48.796;9.210;2022-09-12T16:37:14;0.90;;;0.90;;
18702;SDS011;9481;48.796;9.210;2022-09-12T16:39:41;1.00;;;0.90;;
18702;SDS011;9481;48.796;9.210;2022-09-12T16:42:07;1.50;;;1.27;;
18702;SDS011;9481;48.796;9.210;2022-09-12T16:44:32;0.80;;;0.80;;
18702;SDS011;9481;48.796;9.210;2022-09-12T16:46:58;1.23;;;1.13;;
18702;SDS011;9481;48.796;9.210;2022-09-12T16:49:23;4.20;;;1.00;;
18702;SDS011;9481;48.796;9.210;2022-09-12T16:51:49;1.30;;;1.10;;
18702;SDS011;9481;48.796;9.210;2022-09-12T16:54:15;2.30;;;0.83;;
18702;SDS011;9481;48.796;9.210;2022-09-12T16:56:41;1.10;;;1.00;;
18702;SDS011;9481;48.796;9.210;2022-09-12T16:59:08;1.77;;;1.00;;
18702;SDS011;9481;48.796;9.210;2022-09-12T17:01:38;2.53;;;1.20;;
18702;SDS011;9481;48.796;9.210;2022-09-12T17:04:03;1.00;;;0.90;;
18702;SDS011;9481;48.796;9.210;2022-09-12T17:06:31;1.40;;;1.20;;
18702;SDS011;9481;48.796;9.210;2022-09-12T17:08:58;1.00;;;1.00;;
18702;SDS011;9481;48.796;9.210;2022-09-12T17:11:28;0.97;;;0.97;;
18702;SDS011;9481;48.796;9.210;2022-09-12T17:14:00;1.30;;;1.20;;
18702;SDS011;9481;48.796;9.210;2022-09-12T17:16:29;1.87;;;1.07;;
18702;SDS011;9481;48.796;9.210;2022-09-12T17:18:57;1.13;;;1.00;;
18702;SDS011;9481;48.796;9.210;2022-09-12T17:21:22;1.00;;;1.00;;
18702;SDS011;9481;48.796;9.210;2022-09-12T17:23:48;2.57;;;1.20;;
18702;SDS011;9481;48.796;9.210;2022-09-12T17:26:14;1.53;;;1.10;;
18702;SDS011;9481;48.796;9.210;2022-09-12T17:28:40;1.23;;;1.13;;
18702;SDS011;9481;48.796;9.210;2022-09-12T17:31:08;1.40;;;1.27;;
18702;SDS011;9481;48.796;9.210;2022-09-12T17:33:36;1.30;;;1.20;;
18702;SDS011;9481;48.796;9.210;2022-09-12T17:36:13;1.83;;;1.10;;
18702;SDS011;9481;48.796;9.210;2022-09-12T17:38:42;4.00;;;1.27;;
18702;SDS011;9481;48.796;9.210;2022-09-12T17:41:13;3.23;;;1.30;;
18702;SDS011;9481;48.796;9.210;2022-09-12T17:43:48;2.30;;;1.30;;
18702;SDS011;9481;48.796;9.210;2022-09-12T17:46:19;1.50;;;1.40;;
18702;SDS011;9481;48.796;9.210;2022-09-12T17:48:54;1.30;;;1.20;;
18702;SDS011;9481;48.796;9.210;2022-09-12T17:51:23;2.40;;;1.33;;
18702;SDS011;9481;48.796;9.210;2022-09-12T17:54:04;1.90;;;1.57;;
18702;SDS011;9481;48.796;9.210;2022-09-12T17:56:34;2.37;;;1.50;;
18702;SDS011;9481;48.796;9.210;2022-09-12T17:59:02;2.00;;;1.50;;
18702;SDS011;9481;48.796;9.210;2022-09-12T18:01:29;1.97;;;1.60;;
18702;SDS011;9481;48.796;9.210;2022-09-12T18:04:14;2.70;;;1.87;;
18702;SDS011;9481;48.796;9.210;2022-09-12T18:06:41;2.73;;;1.80;;
18702;SDS011;9481;48.796;9.210;2022-09-12T18:09:11;1.73;;;1.57;;
18702;SDS011;9481;48.796;9.210;2022-09-12T18:11:38;3.10;;;1.50;;
18702;SDS011;9481;48.796;9.210;2022-09-12T18:14:04;1.73;;;1.60;;
18702;SDS011;9481;48.796;9.210;2022-09-12T18:16:29;2.93;;;1.70;;
18702;SDS011;9481;48.796;9.210;2022-09-12T18:18:57;2.83;;;1.80;;